<?xml version="1.0" encoding="UTF-8" standalone="no" ?>
<gpx xmlns="http://www.topografix.com/GPX/1/1" xmlns:xsi="http://www.w3.org/2001/XMLSchema-instance" xsi:schemaLocation="http://www.topografix.com/GPX/1/1 http://www.topografix.com/GPX/1/1/gpx.xsd" version="1.1" creator="VisuGPX - https://www.visugpx.com">
  <metadata>
    <name>04-D-les Mées</name>
    <desc><![CDATA[04-D-les Mées : les Pénitents]]></desc>
  </metadata>
  <trk>
    <name><![CDATA[2016-05-16-mees_corig]]></name>
    <trkseg>
      <trkpt lat="44.02931" lon="5.97538">
        <ele>400.9</ele>
        <time>2016-05-16T07:43:40Z</time>
      </trkpt>
      <trkpt lat="44.02923" lon="5.97543">
        <ele>399.9</ele>
        <time>2016-05-16T07:46:42Z</time>
      </trkpt>
      <trkpt lat="44.02923" lon="5.97544">
        <ele>399.9</ele>
        <time>2016-05-16T07:46:43Z</time>
      </trkpt>
      <trkpt lat="44.0291" lon="5.97559">
        <ele>401.9</ele>
        <time>2016-05-16T07:47:21Z</time>
      </trkpt>
      <trkpt lat="44.02905" lon="5.97569">
        <ele>401.7</ele>
        <time>2016-05-16T07:47:46Z</time>
      </trkpt>
      <trkpt lat="44.02905" lon="5.97569">
        <ele>401.6</ele>
        <time>2016-05-16T07:47:47Z</time>
      </trkpt>
      <trkpt lat="44.029" lon="5.97576">
        <ele>402</ele>
        <time>2016-05-16T07:49:05Z</time>
      </trkpt>
      <trkpt lat="44.02898" lon="5.97575">
        <ele>402</ele>
        <time>2016-05-16T07:49:08Z</time>
      </trkpt>
      <trkpt lat="44.02889" lon="5.97587">
        <ele>401.5</ele>
        <time>2016-05-16T07:49:44Z</time>
      </trkpt>
      <trkpt lat="44.02881" lon="5.97592">
        <ele>401.9</ele>
        <time>2016-05-16T07:49:53Z</time>
      </trkpt>
      <trkpt lat="44.02872" lon="5.97591">
        <ele>401.4</ele>
        <time>2016-05-16T07:50:16Z</time>
      </trkpt>
      <trkpt lat="44.02871" lon="5.97592">
        <ele>401.3</ele>
        <time>2016-05-16T07:50:17Z</time>
      </trkpt>
      <trkpt lat="44.02867" lon="5.9761">
        <ele>403.2</ele>
        <time>2016-05-16T07:50:31Z</time>
      </trkpt>
      <trkpt lat="44.02868" lon="5.97623">
        <ele>404.6</ele>
        <time>2016-05-16T07:50:38Z</time>
      </trkpt>
      <trkpt lat="44.02871" lon="5.97634">
        <ele>405.1</ele>
        <time>2016-05-16T07:50:45Z</time>
      </trkpt>
      <trkpt lat="44.02875" lon="5.97643">
        <ele>404.5</ele>
        <time>2016-05-16T07:50:55Z</time>
      </trkpt>
      <trkpt lat="44.02881" lon="5.97652">
        <ele>406</ele>
        <time>2016-05-16T07:51:02Z</time>
      </trkpt>
      <trkpt lat="44.02882" lon="5.97663">
        <ele>406.4</ele>
        <time>2016-05-16T07:51:08Z</time>
      </trkpt>
      <trkpt lat="44.02888" lon="5.97673">
        <ele>407.8</ele>
        <time>2016-05-16T07:51:15Z</time>
      </trkpt>
      <trkpt lat="44.02896" lon="5.97679">
        <ele>408.7</ele>
        <time>2016-05-16T07:51:21Z</time>
      </trkpt>
      <trkpt lat="44.02897" lon="5.97679">
        <ele>408.8</ele>
        <time>2016-05-16T07:51:22Z</time>
      </trkpt>
      <trkpt lat="44.0289" lon="5.977">
        <ele>410.4</ele>
        <time>2016-05-16T07:51:42Z</time>
      </trkpt>
      <trkpt lat="44.02884" lon="5.97708">
        <ele>410.2</ele>
        <time>2016-05-16T07:51:48Z</time>
      </trkpt>
      <trkpt lat="44.02875" lon="5.97712">
        <ele>410.1</ele>
        <time>2016-05-16T07:51:54Z</time>
      </trkpt>
      <trkpt lat="44.02874" lon="5.97724">
        <ele>412</ele>
        <time>2016-05-16T07:52:25Z</time>
      </trkpt>
      <trkpt lat="44.02872" lon="5.97725">
        <ele>412.4</ele>
        <time>2016-05-16T07:52:29Z</time>
      </trkpt>
      <trkpt lat="44.02864" lon="5.97743">
        <ele>413.3</ele>
        <time>2016-05-16T07:52:43Z</time>
      </trkpt>
      <trkpt lat="44.0286" lon="5.97754">
        <ele>413.3</ele>
        <time>2016-05-16T07:52:52Z</time>
      </trkpt>
      <trkpt lat="44.02856" lon="5.97763">
        <ele>413.6</ele>
        <time>2016-05-16T07:53:01Z</time>
      </trkpt>
      <trkpt lat="44.02855" lon="5.97775">
        <ele>413.9</ele>
        <time>2016-05-16T07:53:09Z</time>
      </trkpt>
      <trkpt lat="44.02851" lon="5.97786">
        <ele>414.5</ele>
        <time>2016-05-16T07:53:18Z</time>
      </trkpt>
      <trkpt lat="44.02847" lon="5.97797">
        <ele>414.8</ele>
        <time>2016-05-16T07:53:35Z</time>
      </trkpt>
      <trkpt lat="44.02846" lon="5.97798">
        <ele>415</ele>
        <time>2016-05-16T07:53:36Z</time>
      </trkpt>
      <trkpt lat="44.02839" lon="5.97815">
        <ele>417.3</ele>
        <time>2016-05-16T07:53:48Z</time>
      </trkpt>
      <trkpt lat="44.02837" lon="5.97826">
        <ele>418.1</ele>
        <time>2016-05-16T07:53:57Z</time>
      </trkpt>
      <trkpt lat="44.02836" lon="5.97837">
        <ele>418.7</ele>
        <time>2016-05-16T07:54:03Z</time>
      </trkpt>
      <trkpt lat="44.02835" lon="5.97849">
        <ele>418.5</ele>
        <time>2016-05-16T07:54:09Z</time>
      </trkpt>
      <trkpt lat="44.02834" lon="5.97861">
        <ele>419.3</ele>
        <time>2016-05-16T07:54:17Z</time>
      </trkpt>
      <trkpt lat="44.02834" lon="5.97873">
        <ele>419.7</ele>
        <time>2016-05-16T07:54:25Z</time>
      </trkpt>
      <trkpt lat="44.02833" lon="5.97884">
        <ele>420.1</ele>
        <time>2016-05-16T07:54:33Z</time>
      </trkpt>
      <trkpt lat="44.02833" lon="5.97895">
        <ele>420.4</ele>
        <time>2016-05-16T07:54:40Z</time>
      </trkpt>
      <trkpt lat="44.02833" lon="5.97897">
        <ele>420.8</ele>
        <time>2016-05-16T07:54:41Z</time>
      </trkpt>
      <trkpt lat="44.02834" lon="5.9792">
        <ele>422</ele>
        <time>2016-05-16T07:55:00Z</time>
      </trkpt>
      <trkpt lat="44.02833" lon="5.97932">
        <ele>423.8</ele>
        <time>2016-05-16T07:55:11Z</time>
      </trkpt>
      <trkpt lat="44.02832" lon="5.97943">
        <ele>423.6</ele>
        <time>2016-05-16T07:55:18Z</time>
      </trkpt>
      <trkpt lat="44.02833" lon="5.97955">
        <ele>423.5</ele>
        <time>2016-05-16T07:55:26Z</time>
      </trkpt>
      <trkpt lat="44.02833" lon="5.9796">
        <ele>423.9</ele>
        <time>2016-05-16T07:55:29Z</time>
      </trkpt>
      <trkpt lat="44.02869" lon="5.98292">
        <ele>429.8</ele>
        <time>2016-05-16T08:00:31Z</time>
      </trkpt>
      <trkpt lat="44.0286" lon="5.98289">
        <ele>447.1</ele>
        <time>2016-05-16T08:01:05Z</time>
      </trkpt>
      <trkpt lat="44.02869" lon="5.98293">
        <ele>447.5</ele>
        <time>2016-05-16T08:01:55Z</time>
      </trkpt>
      <trkpt lat="44.02869" lon="5.98293">
        <ele>447.6</ele>
        <time>2016-05-16T08:01:56Z</time>
      </trkpt>
      <trkpt lat="44.02871" lon="5.98287">
        <ele>446.8</ele>
        <time>2016-05-16T08:02:28Z</time>
      </trkpt>
      <trkpt lat="44.02863" lon="5.9829">
        <ele>446.7</ele>
        <time>2016-05-16T08:02:35Z</time>
      </trkpt>
      <trkpt lat="44.02863" lon="5.98302">
        <ele>445</ele>
        <time>2016-05-16T08:03:19Z</time>
      </trkpt>
      <trkpt lat="44.02863" lon="5.98302">
        <ele>445.1</ele>
        <time>2016-05-16T08:03:20Z</time>
      </trkpt>
      <trkpt lat="44.02877" lon="5.98292">
        <ele>445.1</ele>
        <time>2016-05-16T08:03:41Z</time>
      </trkpt>
      <trkpt lat="44.02886" lon="5.98289">
        <ele>445.1</ele>
        <time>2016-05-16T08:03:49Z</time>
      </trkpt>
      <trkpt lat="44.02893" lon="5.98282">
        <ele>445.1</ele>
        <time>2016-05-16T08:03:55Z</time>
      </trkpt>
      <trkpt lat="44.02899" lon="5.98275">
        <ele>445.3</ele>
        <time>2016-05-16T08:04:06Z</time>
      </trkpt>
      <trkpt lat="44.02905" lon="5.98267">
        <ele>445.1</ele>
        <time>2016-05-16T08:04:13Z</time>
      </trkpt>
      <trkpt lat="44.02911" lon="5.9826">
        <ele>444.7</ele>
        <time>2016-05-16T08:04:19Z</time>
      </trkpt>
      <trkpt lat="44.02917" lon="5.98253">
        <ele>445</ele>
        <time>2016-05-16T08:04:27Z</time>
      </trkpt>
      <trkpt lat="44.02919" lon="5.98252">
        <ele>444</ele>
        <time>2016-05-16T08:04:28Z</time>
      </trkpt>
      <trkpt lat="44.02923" lon="5.98232">
        <ele>444.7</ele>
        <time>2016-05-16T08:05:19Z</time>
      </trkpt>
      <trkpt lat="44.02925" lon="5.98221">
        <ele>445.8</ele>
        <time>2016-05-16T08:05:33Z</time>
      </trkpt>
      <trkpt lat="44.02925" lon="5.9822">
        <ele>445.9</ele>
        <time>2016-05-16T08:05:34Z</time>
      </trkpt>
      <trkpt lat="44.02921" lon="5.98198">
        <ele>447.4</ele>
        <time>2016-05-16T08:06:01Z</time>
      </trkpt>
      <trkpt lat="44.02918" lon="5.98187">
        <ele>447</ele>
        <time>2016-05-16T08:06:12Z</time>
      </trkpt>
      <trkpt lat="44.02918" lon="5.98175">
        <ele>449.1</ele>
        <time>2016-05-16T08:06:26Z</time>
      </trkpt>
      <trkpt lat="44.02917" lon="5.98163">
        <ele>447.6</ele>
        <time>2016-05-16T08:06:38Z</time>
      </trkpt>
      <trkpt lat="44.02917" lon="5.98162">
        <ele>447.7</ele>
        <time>2016-05-16T08:06:39Z</time>
      </trkpt>
      <trkpt lat="44.02912" lon="5.9814">
        <ele>448.5</ele>
        <time>2016-05-16T08:07:00Z</time>
      </trkpt>
      <trkpt lat="44.02905" lon="5.98148">
        <ele>448.3</ele>
        <time>2016-05-16T08:07:16Z</time>
      </trkpt>
      <trkpt lat="44.02906" lon="5.9816">
        <ele>451.4</ele>
        <time>2016-05-16T08:07:30Z</time>
      </trkpt>
      <trkpt lat="44.0291" lon="5.98171">
        <ele>452.6</ele>
        <time>2016-05-16T08:07:50Z</time>
      </trkpt>
      <trkpt lat="44.02911" lon="5.98171">
        <ele>452.8</ele>
        <time>2016-05-16T08:07:51Z</time>
      </trkpt>
      <trkpt lat="44.02916" lon="5.98149">
        <ele>456.1</ele>
        <time>2016-05-16T08:08:14Z</time>
      </trkpt>
      <trkpt lat="44.02917" lon="5.98137">
        <ele>456.7</ele>
        <time>2016-05-16T08:08:25Z</time>
      </trkpt>
      <trkpt lat="44.02915" lon="5.98125">
        <ele>458.3</ele>
        <time>2016-05-16T08:08:59Z</time>
      </trkpt>
      <trkpt lat="44.02915" lon="5.98124">
        <ele>458.3</ele>
        <time>2016-05-16T08:09:00Z</time>
      </trkpt>
      <trkpt lat="44.02915" lon="5.98124">
        <ele>459.2</ele>
        <time>2016-05-16T08:09:55Z</time>
      </trkpt>
      <trkpt lat="44.02911" lon="5.98135">
        <ele>460.2</ele>
        <time>2016-05-16T08:10:03Z</time>
      </trkpt>
      <trkpt lat="44.02911" lon="5.98137">
        <ele>460.3</ele>
        <time>2016-05-16T08:10:04Z</time>
      </trkpt>
      <trkpt lat="44.02913" lon="5.9816">
        <ele>462.4</ele>
        <time>2016-05-16T08:10:30Z</time>
      </trkpt>
      <trkpt lat="44.0292" lon="5.98166">
        <ele>463.7</ele>
        <time>2016-05-16T08:10:45Z</time>
      </trkpt>
      <trkpt lat="44.02924" lon="5.98177">
        <ele>464.2</ele>
        <time>2016-05-16T08:10:54Z</time>
      </trkpt>
      <trkpt lat="44.02931" lon="5.98182">
        <ele>466</ele>
        <time>2016-05-16T08:11:02Z</time>
      </trkpt>
      <trkpt lat="44.02936" lon="5.98192">
        <ele>465.7</ele>
        <time>2016-05-16T08:11:14Z</time>
      </trkpt>
      <trkpt lat="44.02936" lon="5.98194">
        <ele>465.5</ele>
        <time>2016-05-16T08:11:15Z</time>
      </trkpt>
      <trkpt lat="44.02942" lon="5.98215">
        <ele>468</ele>
        <time>2016-05-16T08:11:40Z</time>
      </trkpt>
      <trkpt lat="44.02942" lon="5.98227">
        <ele>470.2</ele>
        <time>2016-05-16T08:11:53Z</time>
      </trkpt>
      <trkpt lat="44.02945" lon="5.98237">
        <ele>470</ele>
        <time>2016-05-16T08:12:03Z</time>
      </trkpt>
      <trkpt lat="44.02951" lon="5.98247">
        <ele>471.3</ele>
        <time>2016-05-16T08:12:19Z</time>
      </trkpt>
      <trkpt lat="44.02951" lon="5.98248">
        <ele>471.3</ele>
        <time>2016-05-16T08:12:20Z</time>
      </trkpt>
      <trkpt lat="44.02959" lon="5.98268">
        <ele>474.1</ele>
        <time>2016-05-16T08:12:51Z</time>
      </trkpt>
      <trkpt lat="44.02962" lon="5.9828">
        <ele>473.7</ele>
        <time>2016-05-16T08:13:03Z</time>
      </trkpt>
      <trkpt lat="44.02968" lon="5.9829">
        <ele>475.9</ele>
        <time>2016-05-16T08:13:22Z</time>
      </trkpt>
      <trkpt lat="44.02969" lon="5.98291">
        <ele>475.7</ele>
        <time>2016-05-16T08:13:23Z</time>
      </trkpt>
      <trkpt lat="44.02973" lon="5.98312">
        <ele>478.9</ele>
        <time>2016-05-16T08:13:49Z</time>
      </trkpt>
      <trkpt lat="44.02978" lon="5.98322">
        <ele>481.5</ele>
        <time>2016-05-16T08:14:05Z</time>
      </trkpt>
      <trkpt lat="44.02979" lon="5.98334">
        <ele>482</ele>
        <time>2016-05-16T08:14:15Z</time>
      </trkpt>
      <trkpt lat="44.0298" lon="5.98346">
        <ele>482</ele>
        <time>2016-05-16T08:14:25Z</time>
      </trkpt>
      <trkpt lat="44.0298" lon="5.98347">
        <ele>482</ele>
        <time>2016-05-16T08:14:26Z</time>
      </trkpt>
      <trkpt lat="44.02984" lon="5.98367">
        <ele>486.5</ele>
        <time>2016-05-16T08:15:04Z</time>
      </trkpt>
      <trkpt lat="44.02984" lon="5.98379">
        <ele>487.6</ele>
        <time>2016-05-16T08:15:20Z</time>
      </trkpt>
      <trkpt lat="44.02984" lon="5.98391">
        <ele>490.1</ele>
        <time>2016-05-16T08:15:39Z</time>
      </trkpt>
      <trkpt lat="44.02983" lon="5.98392">
        <ele>490.5</ele>
        <time>2016-05-16T08:15:40Z</time>
      </trkpt>
      <trkpt lat="44.03004" lon="5.98651">
        <ele>497.3</ele>
        <time>2016-05-16T08:20:43Z</time>
      </trkpt>
      <trkpt lat="44.03008" lon="5.98662">
        <ele>517.3</ele>
        <time>2016-05-16T08:20:55Z</time>
      </trkpt>
      <trkpt lat="44.03007" lon="5.98674">
        <ele>518.8</ele>
        <time>2016-05-16T08:21:14Z</time>
      </trkpt>
      <trkpt lat="44.03008" lon="5.98686">
        <ele>521.1</ele>
        <time>2016-05-16T08:21:38Z</time>
      </trkpt>
      <trkpt lat="44.0301" lon="5.98698">
        <ele>523.9</ele>
        <time>2016-05-16T08:22:00Z</time>
      </trkpt>
      <trkpt lat="44.0301" lon="5.98699">
        <ele>523.6</ele>
        <time>2016-05-16T08:22:01Z</time>
      </trkpt>
      <trkpt lat="44.03005" lon="5.9872">
        <ele>526.7</ele>
        <time>2016-05-16T08:22:52Z</time>
      </trkpt>
      <trkpt lat="44.03005" lon="5.98732">
        <ele>529.2</ele>
        <time>2016-05-16T08:23:02Z</time>
      </trkpt>
      <trkpt lat="44.03005" lon="5.98733">
        <ele>529.7</ele>
        <time>2016-05-16T08:23:03Z</time>
      </trkpt>
      <trkpt lat="44.03003" lon="5.98756">
        <ele>531.4</ele>
        <time>2016-05-16T08:23:27Z</time>
      </trkpt>
      <trkpt lat="44.03006" lon="5.98767">
        <ele>532</ele>
        <time>2016-05-16T08:23:40Z</time>
      </trkpt>
      <trkpt lat="44.03005" lon="5.98779">
        <ele>534.1</ele>
        <time>2016-05-16T08:24:06Z</time>
      </trkpt>
      <trkpt lat="44.03006" lon="5.9878">
        <ele>534</ele>
        <time>2016-05-16T08:24:07Z</time>
      </trkpt>
      <trkpt lat="44.03004" lon="5.98803">
        <ele>537.7</ele>
        <time>2016-05-16T08:24:47Z</time>
      </trkpt>
      <trkpt lat="44.03005" lon="5.98815">
        <ele>538.2</ele>
        <time>2016-05-16T08:25:09Z</time>
      </trkpt>
      <trkpt lat="44.03005" lon="5.98816">
        <ele>538.8</ele>
        <time>2016-05-16T08:25:10Z</time>
      </trkpt>
      <trkpt lat="44.03006" lon="5.98838">
        <ele>541</ele>
        <time>2016-05-16T08:25:50Z</time>
      </trkpt>
      <trkpt lat="44.03006" lon="5.9885">
        <ele>542.6</ele>
        <time>2016-05-16T08:26:02Z</time>
      </trkpt>
      <trkpt lat="44.0301" lon="5.98861">
        <ele>544.5</ele>
        <time>2016-05-16T08:26:14Z</time>
      </trkpt>
      <trkpt lat="44.03011" lon="5.98861">
        <ele>544.4</ele>
        <time>2016-05-16T08:26:15Z</time>
      </trkpt>
      <trkpt lat="44.03019" lon="5.98881">
        <ele>546.8</ele>
        <time>2016-05-16T08:26:47Z</time>
      </trkpt>
      <trkpt lat="44.03019" lon="5.98894">
        <ele>549.2</ele>
        <time>2016-05-16T08:27:12Z</time>
      </trkpt>
      <trkpt lat="44.03021" lon="5.98905">
        <ele>550.2</ele>
        <time>2016-05-16T08:27:23Z</time>
      </trkpt>
      <trkpt lat="44.03022" lon="5.98906">
        <ele>549.9</ele>
        <time>2016-05-16T08:27:24Z</time>
      </trkpt>
      <trkpt lat="44.0302" lon="5.98927">
        <ele>553.6</ele>
        <time>2016-05-16T08:27:51Z</time>
      </trkpt>
      <trkpt lat="44.03023" lon="5.98939">
        <ele>554.7</ele>
        <time>2016-05-16T08:28:04Z</time>
      </trkpt>
      <trkpt lat="44.03027" lon="5.98949">
        <ele>556.1</ele>
        <time>2016-05-16T08:28:23Z</time>
      </trkpt>
      <trkpt lat="44.03028" lon="5.98961">
        <ele>558.2</ele>
        <time>2016-05-16T08:28:37Z</time>
      </trkpt>
      <trkpt lat="44.03029" lon="5.98962">
        <ele>558</ele>
        <time>2016-05-16T08:28:38Z</time>
      </trkpt>
      <trkpt lat="44.03037" lon="5.98982">
        <ele>560</ele>
        <time>2016-05-16T08:29:05Z</time>
      </trkpt>
      <trkpt lat="44.0304" lon="5.98993">
        <ele>562.7</ele>
        <time>2016-05-16T08:29:20Z</time>
      </trkpt>
      <trkpt lat="44.03045" lon="5.99003">
        <ele>563.5</ele>
        <time>2016-05-16T08:29:34Z</time>
      </trkpt>
      <trkpt lat="44.03049" lon="5.99013">
        <ele>565.4</ele>
        <time>2016-05-16T08:29:53Z</time>
      </trkpt>
      <trkpt lat="44.0305" lon="5.99014">
        <ele>565.1</ele>
        <time>2016-05-16T08:29:54Z</time>
      </trkpt>
      <trkpt lat="44.0306" lon="5.99031">
        <ele>568</ele>
        <time>2016-05-16T08:30:17Z</time>
      </trkpt>
      <trkpt lat="44.03065" lon="5.99041">
        <ele>568.4</ele>
        <time>2016-05-16T08:30:28Z</time>
      </trkpt>
      <trkpt lat="44.0307" lon="5.99051">
        <ele>569.9</ele>
        <time>2016-05-16T08:30:39Z</time>
      </trkpt>
      <trkpt lat="44.03076" lon="5.99059">
        <ele>570.8</ele>
        <time>2016-05-16T08:30:51Z</time>
      </trkpt>
      <trkpt lat="44.03083" lon="5.99065">
        <ele>572.5</ele>
        <time>2016-05-16T08:31:04Z</time>
      </trkpt>
      <trkpt lat="44.03084" lon="5.99066">
        <ele>572.4</ele>
        <time>2016-05-16T08:31:05Z</time>
      </trkpt>
      <trkpt lat="44.03097" lon="5.99081">
        <ele>576.2</ele>
        <time>2016-05-16T08:31:26Z</time>
      </trkpt>
      <trkpt lat="44.03104" lon="5.99089">
        <ele>576.3</ele>
        <time>2016-05-16T08:31:37Z</time>
      </trkpt>
      <trkpt lat="44.03112" lon="5.99091">
        <ele>578.2</ele>
        <time>2016-05-16T08:31:49Z</time>
      </trkpt>
      <trkpt lat="44.0312" lon="5.99093">
        <ele>578.4</ele>
        <time>2016-05-16T08:31:59Z</time>
      </trkpt>
      <trkpt lat="44.03128" lon="5.99099">
        <ele>579.4</ele>
        <time>2016-05-16T08:32:12Z</time>
      </trkpt>
      <trkpt lat="44.03129" lon="5.99099">
        <ele>579.7</ele>
        <time>2016-05-16T08:32:13Z</time>
      </trkpt>
      <trkpt lat="44.03144" lon="5.99093">
        <ele>582.5</ele>
        <time>2016-05-16T08:32:34Z</time>
      </trkpt>
      <trkpt lat="44.03136" lon="5.99091">
        <ele>580.7</ele>
        <time>2016-05-16T08:33:02Z</time>
      </trkpt>
      <trkpt lat="44.03127" lon="5.99095">
        <ele>581.4</ele>
        <time>2016-05-16T08:34:02Z</time>
      </trkpt>
      <trkpt lat="44.03127" lon="5.99094">
        <ele>581</ele>
        <time>2016-05-16T08:34:03Z</time>
      </trkpt>
      <trkpt lat="44.03144" lon="5.99095">
        <ele>579.7</ele>
        <time>2016-05-16T08:40:58Z</time>
      </trkpt>
      <trkpt lat="44.03144" lon="5.99096">
        <ele>579.8</ele>
        <time>2016-05-16T08:40:59Z</time>
      </trkpt>
      <trkpt lat="44.03137" lon="5.99081">
        <ele>582.3</ele>
        <time>2016-05-16T08:42:28Z</time>
      </trkpt>
      <trkpt lat="44.03137" lon="5.9908">
        <ele>582.6</ele>
        <time>2016-05-16T08:42:29Z</time>
      </trkpt>
      <trkpt lat="44.03123" lon="5.99066">
        <ele>584.6</ele>
        <time>2016-05-16T08:42:55Z</time>
      </trkpt>
      <trkpt lat="44.03116" lon="5.99059">
        <ele>586.5</ele>
        <time>2016-05-16T08:44:14Z</time>
      </trkpt>
      <trkpt lat="44.03115" lon="5.99059">
        <ele>586.3</ele>
        <time>2016-05-16T08:44:15Z</time>
      </trkpt>
      <trkpt lat="44.03107" lon="5.99038">
        <ele>588</ele>
        <time>2016-05-16T08:45:01Z</time>
      </trkpt>
      <trkpt lat="44.03102" lon="5.99029">
        <ele>588.9</ele>
        <time>2016-05-16T08:45:13Z</time>
      </trkpt>
      <trkpt lat="44.03099" lon="5.99019">
        <ele>589.2</ele>
        <time>2016-05-16T08:45:21Z</time>
      </trkpt>
      <trkpt lat="44.03098" lon="5.99018">
        <ele>589.7</ele>
        <time>2016-05-16T08:45:22Z</time>
      </trkpt>
      <trkpt lat="44.03087" lon="5.99">
        <ele>588.4</ele>
        <time>2016-05-16T08:45:45Z</time>
      </trkpt>
      <trkpt lat="44.03083" lon="5.9899">
        <ele>586.8</ele>
        <time>2016-05-16T08:45:57Z</time>
      </trkpt>
      <trkpt lat="44.03077" lon="5.98981">
        <ele>586.8</ele>
        <time>2016-05-16T08:46:08Z</time>
      </trkpt>
      <trkpt lat="44.03076" lon="5.98969">
        <ele>587.3</ele>
        <time>2016-05-16T08:46:34Z</time>
      </trkpt>
      <trkpt lat="44.03075" lon="5.98968">
        <ele>587.2</ele>
        <time>2016-05-16T08:46:35Z</time>
      </trkpt>
      <trkpt lat="44.03073" lon="5.98944">
        <ele>587.3</ele>
        <time>2016-05-16T08:47:07Z</time>
      </trkpt>
      <trkpt lat="44.03068" lon="5.98935">
        <ele>586</ele>
        <time>2016-05-16T08:47:18Z</time>
      </trkpt>
      <trkpt lat="44.03066" lon="5.98924">
        <ele>585.3</ele>
        <time>2016-05-16T08:47:32Z</time>
      </trkpt>
      <trkpt lat="44.03063" lon="5.98912">
        <ele>582.6</ele>
        <time>2016-05-16T08:47:52Z</time>
      </trkpt>
      <trkpt lat="44.03063" lon="5.98911">
        <ele>582.8</ele>
        <time>2016-05-16T08:47:53Z</time>
      </trkpt>
      <trkpt lat="44.03061" lon="5.98888">
        <ele>579.7</ele>
        <time>2016-05-16T08:48:13Z</time>
      </trkpt>
      <trkpt lat="44.03058" lon="5.98877">
        <ele>578.4</ele>
        <time>2016-05-16T08:48:21Z</time>
      </trkpt>
      <trkpt lat="44.03056" lon="5.98866">
        <ele>578.4</ele>
        <time>2016-05-16T08:48:30Z</time>
      </trkpt>
      <trkpt lat="44.03058" lon="5.98854">
        <ele>579.5</ele>
        <time>2016-05-16T08:48:41Z</time>
      </trkpt>
      <trkpt lat="44.03056" lon="5.98843">
        <ele>577.6</ele>
        <time>2016-05-16T08:48:52Z</time>
      </trkpt>
      <trkpt lat="44.03059" lon="5.98854">
        <ele>579.2</ele>
        <time>2016-05-16T08:49:20Z</time>
      </trkpt>
      <trkpt lat="44.03059" lon="5.98855">
        <ele>579.5</ele>
        <time>2016-05-16T08:49:21Z</time>
      </trkpt>
      <trkpt lat="44.03057" lon="5.98878">
        <ele>579</ele>
        <time>2016-05-16T08:49:42Z</time>
      </trkpt>
      <trkpt lat="44.03055" lon="5.9889">
        <ele>580.6</ele>
        <time>2016-05-16T08:49:55Z</time>
      </trkpt>
      <trkpt lat="44.03058" lon="5.98901">
        <ele>581.3</ele>
        <time>2016-05-16T08:50:08Z</time>
      </trkpt>
      <trkpt lat="44.03061" lon="5.98913">
        <ele>583.9</ele>
        <time>2016-05-16T08:50:19Z</time>
      </trkpt>
      <trkpt lat="44.03063" lon="5.98925">
        <ele>584.4</ele>
        <time>2016-05-16T08:50:39Z</time>
      </trkpt>
      <trkpt lat="44.03064" lon="5.98926">
        <ele>584.8</ele>
        <time>2016-05-16T08:50:40Z</time>
      </trkpt>
      <trkpt lat="44.03067" lon="5.98948">
        <ele>586.9</ele>
        <time>2016-05-16T08:50:59Z</time>
      </trkpt>
      <trkpt lat="44.03067" lon="5.98959">
        <ele>588.4</ele>
        <time>2016-05-16T08:51:12Z</time>
      </trkpt>
      <trkpt lat="44.03071" lon="5.9897">
        <ele>588.2</ele>
        <time>2016-05-16T08:51:20Z</time>
      </trkpt>
      <trkpt lat="44.03071" lon="5.98981">
        <ele>587.9</ele>
        <time>2016-05-16T08:51:32Z</time>
      </trkpt>
      <trkpt lat="44.03075" lon="5.98991">
        <ele>587.4</ele>
        <time>2016-05-16T08:51:38Z</time>
      </trkpt>
      <trkpt lat="44.03079" lon="5.99001">
        <ele>588.4</ele>
        <time>2016-05-16T08:51:45Z</time>
      </trkpt>
      <trkpt lat="44.0308" lon="5.99003">
        <ele>587.9</ele>
        <time>2016-05-16T08:51:46Z</time>
      </trkpt>
      <trkpt lat="44.03089" lon="5.99021">
        <ele>590.3</ele>
        <time>2016-05-16T08:52:02Z</time>
      </trkpt>
      <trkpt lat="44.03092" lon="5.99032">
        <ele>589.5</ele>
        <time>2016-05-16T08:52:11Z</time>
      </trkpt>
      <trkpt lat="44.03097" lon="5.99042">
        <ele>588.9</ele>
        <time>2016-05-16T08:52:20Z</time>
      </trkpt>
      <trkpt lat="44.03104" lon="5.99048">
        <ele>589.3</ele>
        <time>2016-05-16T08:52:28Z</time>
      </trkpt>
      <trkpt lat="44.03111" lon="5.99055">
        <ele>588.9</ele>
        <time>2016-05-16T08:52:35Z</time>
      </trkpt>
      <trkpt lat="44.03116" lon="5.99064">
        <ele>587.1</ele>
        <time>2016-05-16T08:52:44Z</time>
      </trkpt>
      <trkpt lat="44.03123" lon="5.99072">
        <ele>587</ele>
        <time>2016-05-16T08:52:54Z</time>
      </trkpt>
      <trkpt lat="44.03123" lon="5.99072">
        <ele>587.2</ele>
        <time>2016-05-16T08:52:55Z</time>
      </trkpt>
      <trkpt lat="44.03134" lon="5.99089">
        <ele>582.4</ele>
        <time>2016-05-16T08:53:15Z</time>
      </trkpt>
      <trkpt lat="44.03141" lon="5.99094">
        <ele>582.2</ele>
        <time>2016-05-16T08:53:39Z</time>
      </trkpt>
      <trkpt lat="44.0315" lon="5.9909">
        <ele>581.7</ele>
        <time>2016-05-16T08:54:51Z</time>
      </trkpt>
      <trkpt lat="44.0315" lon="5.9909">
        <ele>581.8</ele>
        <time>2016-05-16T08:54:52Z</time>
      </trkpt>
      <trkpt lat="44.03141" lon="5.99071">
        <ele>578.5</ele>
        <time>2016-05-16T08:55:41Z</time>
      </trkpt>
      <trkpt lat="44.03139" lon="5.99062">
        <ele>577.8</ele>
        <time>2016-05-16T08:56:11Z</time>
      </trkpt>
      <trkpt lat="44.03136" lon="5.98904">
        <ele>571.6</ele>
        <time>2016-05-16T09:01:14Z</time>
      </trkpt>
      <trkpt lat="44.03132" lon="5.98915">
        <ele>553.2</ele>
        <time>2016-05-16T09:02:21Z</time>
      </trkpt>
      <trkpt lat="44.03133" lon="5.98916">
        <ele>552.5</ele>
        <time>2016-05-16T09:02:22Z</time>
      </trkpt>
      <trkpt lat="44.03134" lon="5.98937">
        <ele>550.3</ele>
        <time>2016-05-16T09:02:43Z</time>
      </trkpt>
      <trkpt lat="44.03136" lon="5.98949">
        <ele>549.4</ele>
        <time>2016-05-16T09:02:52Z</time>
      </trkpt>
      <trkpt lat="44.03142" lon="5.98958">
        <ele>546.3</ele>
        <time>2016-05-16T09:03:11Z</time>
      </trkpt>
      <trkpt lat="44.0315" lon="5.9896">
        <ele>545</ele>
        <time>2016-05-16T09:03:23Z</time>
      </trkpt>
      <trkpt lat="44.03152" lon="5.9896">
        <ele>545.1</ele>
        <time>2016-05-16T09:03:24Z</time>
      </trkpt>
      <trkpt lat="44.03159" lon="5.98979">
        <ele>544</ele>
        <time>2016-05-16T09:04:16Z</time>
      </trkpt>
      <trkpt lat="44.03165" lon="5.98988">
        <ele>542.8</ele>
        <time>2016-05-16T09:04:28Z</time>
      </trkpt>
      <trkpt lat="44.03165" lon="5.98989">
        <ele>542</ele>
        <time>2016-05-16T09:04:29Z</time>
      </trkpt>
      <trkpt lat="44.03166" lon="5.99012">
        <ele>545.7</ele>
        <time>2016-05-16T09:05:05Z</time>
      </trkpt>
      <trkpt lat="44.03173" lon="5.99019">
        <ele>544.7</ele>
        <time>2016-05-16T09:05:12Z</time>
      </trkpt>
      <trkpt lat="44.03175" lon="5.9903">
        <ele>546.1</ele>
        <time>2016-05-16T09:05:24Z</time>
      </trkpt>
      <trkpt lat="44.03182" lon="5.99038">
        <ele>548.3</ele>
        <time>2016-05-16T09:05:42Z</time>
      </trkpt>
      <trkpt lat="44.03183" lon="5.99038">
        <ele>548.4</ele>
        <time>2016-05-16T09:05:43Z</time>
      </trkpt>
      <trkpt lat="44.0319" lon="5.99057">
        <ele>547.4</ele>
        <time>2016-05-16T09:06:13Z</time>
      </trkpt>
      <trkpt lat="44.03197" lon="5.99064">
        <ele>547.8</ele>
        <time>2016-05-16T09:06:25Z</time>
      </trkpt>
      <trkpt lat="44.03203" lon="5.99073">
        <ele>546.5</ele>
        <time>2016-05-16T09:06:35Z</time>
      </trkpt>
      <trkpt lat="44.03205" lon="5.99085">
        <ele>547.1</ele>
        <time>2016-05-16T09:06:51Z</time>
      </trkpt>
      <trkpt lat="44.03205" lon="5.99086">
        <ele>547.1</ele>
        <time>2016-05-16T09:06:52Z</time>
      </trkpt>
      <trkpt lat="44.03217" lon="5.99098">
        <ele>547.5</ele>
        <time>2016-05-16T09:07:57Z</time>
      </trkpt>
      <trkpt lat="44.03217" lon="5.99099">
        <ele>547.1</ele>
        <time>2016-05-16T09:07:58Z</time>
      </trkpt>
      <trkpt lat="44.0322" lon="5.99119">
        <ele>546.6</ele>
        <time>2016-05-16T09:08:30Z</time>
      </trkpt>
      <trkpt lat="44.03221" lon="5.99131">
        <ele>544.5</ele>
        <time>2016-05-16T09:08:41Z</time>
      </trkpt>
      <trkpt lat="44.03227" lon="5.9914">
        <ele>544.4</ele>
        <time>2016-05-16T09:08:51Z</time>
      </trkpt>
      <trkpt lat="44.03233" lon="5.99149">
        <ele>542</ele>
        <time>2016-05-16T09:08:59Z</time>
      </trkpt>
      <trkpt lat="44.03233" lon="5.9915">
        <ele>541.7</ele>
        <time>2016-05-16T09:09:00Z</time>
      </trkpt>
      <trkpt lat="44.03241" lon="5.99168">
        <ele>543.8</ele>
        <time>2016-05-16T09:09:32Z</time>
      </trkpt>
      <trkpt lat="44.0325" lon="5.9917">
        <ele>540.7</ele>
        <time>2016-05-16T09:09:57Z</time>
      </trkpt>
      <trkpt lat="44.03251" lon="5.99182">
        <ele>539.2</ele>
        <time>2016-05-16T09:13:25Z</time>
      </trkpt>
      <trkpt lat="44.03251" lon="5.99183">
        <ele>539.2</ele>
        <time>2016-05-16T09:13:26Z</time>
      </trkpt>
      <trkpt lat="44.03259" lon="5.99204">
        <ele>533.5</ele>
        <time>2016-05-16T09:13:52Z</time>
      </trkpt>
      <trkpt lat="44.03262" lon="5.99214">
        <ele>533.8</ele>
        <time>2016-05-16T09:14:01Z</time>
      </trkpt>
      <trkpt lat="44.03265" lon="5.99226">
        <ele>532</ele>
        <time>2016-05-16T09:14:17Z</time>
      </trkpt>
      <trkpt lat="44.03271" lon="5.99235">
        <ele>529.4</ele>
        <time>2016-05-16T09:14:32Z</time>
      </trkpt>
      <trkpt lat="44.03272" lon="5.99236">
        <ele>529.2</ele>
        <time>2016-05-16T09:14:33Z</time>
      </trkpt>
      <trkpt lat="44.03279" lon="5.99255">
        <ele>532.1</ele>
        <time>2016-05-16T09:15:04Z</time>
      </trkpt>
      <trkpt lat="44.03283" lon="5.99266">
        <ele>535</ele>
        <time>2016-05-16T09:15:21Z</time>
      </trkpt>
      <trkpt lat="44.03285" lon="5.99277">
        <ele>537.2</ele>
        <time>2016-05-16T09:15:40Z</time>
      </trkpt>
      <trkpt lat="44.03285" lon="5.99278">
        <ele>537.4</ele>
        <time>2016-05-16T09:15:41Z</time>
      </trkpt>
      <trkpt lat="44.0329" lon="5.99299">
        <ele>537.1</ele>
        <time>2016-05-16T09:16:14Z</time>
      </trkpt>
      <trkpt lat="44.03296" lon="5.99305">
        <ele>534.2</ele>
        <time>2016-05-16T09:16:27Z</time>
      </trkpt>
      <trkpt lat="44.03306" lon="5.99357">
        <ele>533.6</ele>
        <time>2016-05-16T09:21:44Z</time>
      </trkpt>
      <trkpt lat="44.03305" lon="5.99369">
        <ele>535.7</ele>
        <time>2016-05-16T09:21:56Z</time>
      </trkpt>
      <trkpt lat="44.03307" lon="5.99381">
        <ele>535.4</ele>
        <time>2016-05-16T09:22:09Z</time>
      </trkpt>
      <trkpt lat="44.0331" lon="5.99392">
        <ele>535.3</ele>
        <time>2016-05-16T09:22:23Z</time>
      </trkpt>
      <trkpt lat="44.03308" lon="5.99404">
        <ele>534.5</ele>
        <time>2016-05-16T09:22:49Z</time>
      </trkpt>
      <trkpt lat="44.03307" lon="5.99404">
        <ele>534.6</ele>
        <time>2016-05-16T09:22:50Z</time>
      </trkpt>
      <trkpt lat="44.03308" lon="5.99428">
        <ele>536</ele>
        <time>2016-05-16T09:23:23Z</time>
      </trkpt>
      <trkpt lat="44.03313" lon="5.99439">
        <ele>536</ele>
        <time>2016-05-16T09:23:40Z</time>
      </trkpt>
      <trkpt lat="44.03316" lon="5.9945">
        <ele>534.1</ele>
        <time>2016-05-16T09:23:52Z</time>
      </trkpt>
      <trkpt lat="44.03316" lon="5.99451">
        <ele>533.8</ele>
        <time>2016-05-16T09:23:53Z</time>
      </trkpt>
      <trkpt lat="44.03326" lon="5.99468">
        <ele>529.3</ele>
        <time>2016-05-16T09:24:15Z</time>
      </trkpt>
      <trkpt lat="44.03334" lon="5.99474">
        <ele>526.9</ele>
        <time>2016-05-16T09:24:45Z</time>
      </trkpt>
      <trkpt lat="44.03343" lon="5.99474">
        <ele>522.3</ele>
        <time>2016-05-16T09:25:26Z</time>
      </trkpt>
      <trkpt lat="44.03343" lon="5.99474">
        <ele>522.5</ele>
        <time>2016-05-16T09:25:27Z</time>
      </trkpt>
      <trkpt lat="44.03349" lon="5.99484">
        <ele>513.5</ele>
        <time>2016-05-16T09:26:57Z</time>
      </trkpt>
      <trkpt lat="44.03349" lon="5.99485">
        <ele>513.4</ele>
        <time>2016-05-16T09:26:58Z</time>
      </trkpt>
      <trkpt lat="44.03366" lon="5.99489">
        <ele>503.4</ele>
        <time>2016-05-16T09:28:11Z</time>
      </trkpt>
      <trkpt lat="44.03367" lon="5.99488">
        <ele>503.5</ele>
        <time>2016-05-16T09:28:12Z</time>
      </trkpt>
      <trkpt lat="44.0338" lon="5.99479">
        <ele>498.1</ele>
        <time>2016-05-16T09:29:05Z</time>
      </trkpt>
      <trkpt lat="44.03385" lon="5.9949">
        <ele>492.5</ele>
        <time>2016-05-16T09:29:50Z</time>
      </trkpt>
      <trkpt lat="44.03385" lon="5.99491">
        <ele>492.3</ele>
        <time>2016-05-16T09:29:51Z</time>
      </trkpt>
      <trkpt lat="44.03395" lon="5.99502">
        <ele>484.9</ele>
        <time>2016-05-16T09:30:38Z</time>
      </trkpt>
      <trkpt lat="44.03403" lon="5.99499">
        <ele>479.7</ele>
        <time>2016-05-16T09:31:05Z</time>
      </trkpt>
      <trkpt lat="44.03404" lon="5.99498">
        <ele>479.3</ele>
        <time>2016-05-16T09:31:06Z</time>
      </trkpt>
      <trkpt lat="44.03414" lon="5.99502">
        <ele>471.6</ele>
        <time>2016-05-16T09:32:20Z</time>
      </trkpt>
      <trkpt lat="44.03414" lon="5.99502">
        <ele>471.2</ele>
        <time>2016-05-16T09:32:21Z</time>
      </trkpt>
      <trkpt lat="44.03428" lon="5.99508">
        <ele>465.2</ele>
        <time>2016-05-16T09:33:07Z</time>
      </trkpt>
      <trkpt lat="44.03436" lon="5.99509">
        <ele>453</ele>
        <time>2016-05-16T09:34:04Z</time>
      </trkpt>
      <trkpt lat="44.03437" lon="5.99509">
        <ele>452.8</ele>
        <time>2016-05-16T09:34:05Z</time>
      </trkpt>
      <trkpt lat="44.03452" lon="5.99509">
        <ele>445.9</ele>
        <time>2016-05-16T09:34:50Z</time>
      </trkpt>
      <trkpt lat="44.03447" lon="5.99498">
        <ele>446.2</ele>
        <time>2016-05-16T09:35:28Z</time>
      </trkpt>
      <trkpt lat="44.03446" lon="5.99499">
        <ele>446.7</ele>
        <time>2016-05-16T09:35:29Z</time>
      </trkpt>
      <trkpt lat="44.03463" lon="5.995">
        <ele>447.4</ele>
        <time>2016-05-16T09:36:42Z</time>
      </trkpt>
      <trkpt lat="44.0342" lon="5.99254">
        <ele>444.2</ele>
        <time>2016-05-16T09:41:44Z</time>
      </trkpt>
      <trkpt lat="44.03418" lon="5.99243">
        <ele>433.1</ele>
        <time>2016-05-16T09:41:51Z</time>
      </trkpt>
      <trkpt lat="44.03416" lon="5.99231">
        <ele>432.7</ele>
        <time>2016-05-16T09:42:01Z</time>
      </trkpt>
      <trkpt lat="44.03417" lon="5.99221">
        <ele>431.6</ele>
        <time>2016-05-16T09:42:08Z</time>
      </trkpt>
      <trkpt lat="44.03422" lon="5.99212">
        <ele>431.5</ele>
        <time>2016-05-16T09:42:13Z</time>
      </trkpt>
      <trkpt lat="44.03418" lon="5.99202">
        <ele>431</ele>
        <time>2016-05-16T09:42:19Z</time>
      </trkpt>
      <trkpt lat="44.03415" lon="5.9919">
        <ele>431.2</ele>
        <time>2016-05-16T09:42:28Z</time>
      </trkpt>
      <trkpt lat="44.03413" lon="5.99178">
        <ele>431.8</ele>
        <time>2016-05-16T09:42:36Z</time>
      </trkpt>
      <trkpt lat="44.03412" lon="5.99167">
        <ele>432</ele>
        <time>2016-05-16T09:42:43Z</time>
      </trkpt>
      <trkpt lat="44.0341" lon="5.99155">
        <ele>432</ele>
        <time>2016-05-16T09:42:53Z</time>
      </trkpt>
      <trkpt lat="44.0341" lon="5.99154">
        <ele>432.1</ele>
        <time>2016-05-16T09:42:54Z</time>
      </trkpt>
      <trkpt lat="44.03411" lon="5.99132">
        <ele>431.7</ele>
        <time>2016-05-16T09:43:15Z</time>
      </trkpt>
      <trkpt lat="44.03419" lon="5.99127">
        <ele>431.7</ele>
        <time>2016-05-16T09:43:36Z</time>
      </trkpt>
      <trkpt lat="44.03413" lon="5.99119">
        <ele>431.9</ele>
        <time>2016-05-16T09:43:47Z</time>
      </trkpt>
      <trkpt lat="44.03405" lon="5.99113">
        <ele>431.5</ele>
        <time>2016-05-16T09:44:01Z</time>
      </trkpt>
      <trkpt lat="44.03405" lon="5.99113">
        <ele>431.4</ele>
        <time>2016-05-16T09:44:02Z</time>
      </trkpt>
      <trkpt lat="44.03399" lon="5.99091">
        <ele>430.8</ele>
        <time>2016-05-16T09:44:24Z</time>
      </trkpt>
      <trkpt lat="44.03397" lon="5.99079">
        <ele>432.3</ele>
        <time>2016-05-16T09:44:33Z</time>
      </trkpt>
      <trkpt lat="44.03394" lon="5.99067">
        <ele>433.5</ele>
        <time>2016-05-16T09:44:44Z</time>
      </trkpt>
      <trkpt lat="44.03388" lon="5.99059">
        <ele>433.5</ele>
        <time>2016-05-16T09:44:57Z</time>
      </trkpt>
      <trkpt lat="44.03381" lon="5.99053">
        <ele>434.2</ele>
        <time>2016-05-16T09:45:05Z</time>
      </trkpt>
      <trkpt lat="44.0338" lon="5.99052">
        <ele>434.4</ele>
        <time>2016-05-16T09:45:06Z</time>
      </trkpt>
      <trkpt lat="44.03369" lon="5.99039">
        <ele>434.8</ele>
        <time>2016-05-16T09:45:22Z</time>
      </trkpt>
      <trkpt lat="44.03362" lon="5.99031">
        <ele>434.9</ele>
        <time>2016-05-16T09:45:29Z</time>
      </trkpt>
      <trkpt lat="44.03363" lon="5.99019">
        <ele>434.6</ele>
        <time>2016-05-16T09:45:40Z</time>
      </trkpt>
      <trkpt lat="44.03358" lon="5.99011">
        <ele>436.2</ele>
        <time>2016-05-16T09:45:47Z</time>
      </trkpt>
      <trkpt lat="44.03355" lon="5.99001">
        <ele>436.3</ele>
        <time>2016-05-16T09:45:53Z</time>
      </trkpt>
      <trkpt lat="44.03351" lon="5.9899">
        <ele>437.1</ele>
        <time>2016-05-16T09:46:06Z</time>
      </trkpt>
      <trkpt lat="44.03351" lon="5.9899">
        <ele>437.4</ele>
        <time>2016-05-16T09:46:07Z</time>
      </trkpt>
      <trkpt lat="44.03353" lon="5.98976">
        <ele>436.9</ele>
        <time>2016-05-16T09:46:18Z</time>
      </trkpt>
      <trkpt lat="44.03345" lon="5.98971">
        <ele>437.7</ele>
        <time>2016-05-16T09:46:24Z</time>
      </trkpt>
      <trkpt lat="44.03339" lon="5.98965">
        <ele>436.7</ele>
        <time>2016-05-16T09:46:30Z</time>
      </trkpt>
      <trkpt lat="44.03334" lon="5.98958">
        <ele>437.1</ele>
        <time>2016-05-16T09:46:37Z</time>
      </trkpt>
      <trkpt lat="44.03326" lon="5.98954">
        <ele>436.9</ele>
        <time>2016-05-16T09:46:42Z</time>
      </trkpt>
      <trkpt lat="44.0332" lon="5.98946">
        <ele>437</ele>
        <time>2016-05-16T09:46:49Z</time>
      </trkpt>
      <trkpt lat="44.03316" lon="5.98935">
        <ele>436.8</ele>
        <time>2016-05-16T09:46:57Z</time>
      </trkpt>
      <trkpt lat="44.03318" lon="5.98925">
        <ele>436.9</ele>
        <time>2016-05-16T09:47:04Z</time>
      </trkpt>
      <trkpt lat="44.03318" lon="5.98913">
        <ele>436.4</ele>
        <time>2016-05-16T09:47:15Z</time>
      </trkpt>
      <trkpt lat="44.03316" lon="5.98911">
        <ele>436.4</ele>
        <time>2016-05-16T09:47:16Z</time>
      </trkpt>
      <trkpt lat="44.03313" lon="5.98891">
        <ele>437.2</ele>
        <time>2016-05-16T09:47:28Z</time>
      </trkpt>
      <trkpt lat="44.03314" lon="5.98879">
        <ele>437.7</ele>
        <time>2016-05-16T09:47:37Z</time>
      </trkpt>
      <trkpt lat="44.03308" lon="5.98869">
        <ele>438.3</ele>
        <time>2016-05-16T09:47:45Z</time>
      </trkpt>
      <trkpt lat="44.03303" lon="5.98861">
        <ele>439</ele>
        <time>2016-05-16T09:47:52Z</time>
      </trkpt>
      <trkpt lat="44.03298" lon="5.98852">
        <ele>438.2</ele>
        <time>2016-05-16T09:48:01Z</time>
      </trkpt>
      <trkpt lat="44.03292" lon="5.98843">
        <ele>437.7</ele>
        <time>2016-05-16T09:48:08Z</time>
      </trkpt>
      <trkpt lat="44.03287" lon="5.98833">
        <ele>437.7</ele>
        <time>2016-05-16T09:48:16Z</time>
      </trkpt>
      <trkpt lat="44.03286" lon="5.98832">
        <ele>437.8</ele>
        <time>2016-05-16T09:48:17Z</time>
      </trkpt>
      <trkpt lat="44.0328" lon="5.98813">
        <ele>434.8</ele>
        <time>2016-05-16T09:48:49Z</time>
      </trkpt>
      <trkpt lat="44.03276" lon="5.98803">
        <ele>433.9</ele>
        <time>2016-05-16T09:48:59Z</time>
      </trkpt>
      <trkpt lat="44.03267" lon="5.98807">
        <ele>434.3</ele>
        <time>2016-05-16T09:49:11Z</time>
      </trkpt>
      <trkpt lat="44.03267" lon="5.98795">
        <ele>435.6</ele>
        <time>2016-05-16T09:49:42Z</time>
      </trkpt>
      <trkpt lat="44.03267" lon="5.98794">
        <ele>435.6</ele>
        <time>2016-05-16T09:49:43Z</time>
      </trkpt>
      <trkpt lat="44.03282" lon="5.9879">
        <ele>437.4</ele>
        <time>2016-05-16T09:50:33Z</time>
      </trkpt>
      <trkpt lat="44.0329" lon="5.98784">
        <ele>437.3</ele>
        <time>2016-05-16T09:50:45Z</time>
      </trkpt>
      <trkpt lat="44.0329" lon="5.98783">
        <ele>437.2</ele>
        <time>2016-05-16T09:50:46Z</time>
      </trkpt>
      <trkpt lat="44.03273" lon="5.9879">
        <ele>437.8</ele>
        <time>2016-05-16T09:51:09Z</time>
      </trkpt>
      <trkpt lat="44.03265" lon="5.98795">
        <ele>436</ele>
        <time>2016-05-16T09:51:20Z</time>
      </trkpt>
      <trkpt lat="44.03272" lon="5.98788">
        <ele>434.8</ele>
        <time>2016-05-16T09:51:39Z</time>
      </trkpt>
      <trkpt lat="44.03277" lon="5.98779">
        <ele>435.3</ele>
        <time>2016-05-16T09:51:44Z</time>
      </trkpt>
      <trkpt lat="44.03272" lon="5.9877">
        <ele>437.9</ele>
        <time>2016-05-16T09:51:58Z</time>
      </trkpt>
      <trkpt lat="44.03271" lon="5.98769">
        <ele>437.9</ele>
        <time>2016-05-16T09:51:59Z</time>
      </trkpt>
      <trkpt lat="44.03262" lon="5.9875">
        <ele>440.8</ele>
        <time>2016-05-16T09:52:29Z</time>
      </trkpt>
      <trkpt lat="44.03255" lon="5.98745">
        <ele>441</ele>
        <time>2016-05-16T09:52:37Z</time>
      </trkpt>
      <trkpt lat="44.03247" lon="5.98739">
        <ele>441.4</ele>
        <time>2016-05-16T09:52:44Z</time>
      </trkpt>
      <trkpt lat="44.03239" lon="5.98734">
        <ele>442.3</ele>
        <time>2016-05-16T09:52:51Z</time>
      </trkpt>
      <trkpt lat="44.03233" lon="5.98726">
        <ele>442.1</ele>
        <time>2016-05-16T09:53:00Z</time>
      </trkpt>
      <trkpt lat="44.03232" lon="5.98725">
        <ele>441.8</ele>
        <time>2016-05-16T09:53:01Z</time>
      </trkpt>
      <trkpt lat="44.03228" lon="5.98703">
        <ele>442.2</ele>
        <time>2016-05-16T09:53:25Z</time>
      </trkpt>
      <trkpt lat="44.03224" lon="5.98715">
        <ele>442.8</ele>
        <time>2016-05-16T09:53:50Z</time>
      </trkpt>
      <trkpt lat="44.03219" lon="5.98704">
        <ele>443.8</ele>
        <time>2016-05-16T09:54:09Z</time>
      </trkpt>
      <trkpt lat="44.03219" lon="5.98703">
        <ele>443.6</ele>
        <time>2016-05-16T09:54:10Z</time>
      </trkpt>
      <trkpt lat="44.03215" lon="5.98692">
        <ele>442.6</ele>
        <time>2016-05-16T09:56:08Z</time>
      </trkpt>
      <trkpt lat="44.03216" lon="5.9868">
        <ele>441.7</ele>
        <time>2016-05-16T09:56:56Z</time>
      </trkpt>
      <trkpt lat="44.03159" lon="5.98399">
        <ele>439.2</ele>
        <time>2016-05-16T10:01:59Z</time>
      </trkpt>
      <trkpt lat="44.03153" lon="5.98392">
        <ele>431.8</ele>
        <time>2016-05-16T10:02:06Z</time>
      </trkpt>
      <trkpt lat="44.03148" lon="5.98382">
        <ele>430.3</ele>
        <time>2016-05-16T10:02:13Z</time>
      </trkpt>
      <trkpt lat="44.03142" lon="5.98373">
        <ele>430.5</ele>
        <time>2016-05-16T10:02:19Z</time>
      </trkpt>
      <trkpt lat="44.03138" lon="5.98363">
        <ele>429.4</ele>
        <time>2016-05-16T10:02:26Z</time>
      </trkpt>
      <trkpt lat="44.03138" lon="5.98352">
        <ele>428.8</ele>
        <time>2016-05-16T10:02:34Z</time>
      </trkpt>
      <trkpt lat="44.03133" lon="5.98342">
        <ele>427.1</ele>
        <time>2016-05-16T10:02:41Z</time>
      </trkpt>
      <trkpt lat="44.03129" lon="5.98332">
        <ele>426.4</ele>
        <time>2016-05-16T10:02:53Z</time>
      </trkpt>
      <trkpt lat="44.03125" lon="5.98321">
        <ele>424.1</ele>
        <time>2016-05-16T10:03:03Z</time>
      </trkpt>
      <trkpt lat="44.03124" lon="5.9832">
        <ele>424.2</ele>
        <time>2016-05-16T10:03:04Z</time>
      </trkpt>
      <trkpt lat="44.0312" lon="5.98298">
        <ele>420.8</ele>
        <time>2016-05-16T10:03:26Z</time>
      </trkpt>
      <trkpt lat="44.03119" lon="5.98287">
        <ele>418.3</ele>
        <time>2016-05-16T10:03:38Z</time>
      </trkpt>
      <trkpt lat="44.03117" lon="5.98275">
        <ele>415.6</ele>
        <time>2016-05-16T10:03:47Z</time>
      </trkpt>
      <trkpt lat="44.03117" lon="5.98264">
        <ele>414.4</ele>
        <time>2016-05-16T10:03:56Z</time>
      </trkpt>
      <trkpt lat="44.03111" lon="5.98257">
        <ele>414.6</ele>
        <time>2016-05-16T10:04:02Z</time>
      </trkpt>
      <trkpt lat="44.03114" lon="5.98246">
        <ele>414</ele>
        <time>2016-05-16T10:04:09Z</time>
      </trkpt>
      <trkpt lat="44.03113" lon="5.98245">
        <ele>414</ele>
        <time>2016-05-16T10:04:10Z</time>
      </trkpt>
      <trkpt lat="44.03109" lon="5.98225">
        <ele>412.9</ele>
        <time>2016-05-16T10:04:23Z</time>
      </trkpt>
      <trkpt lat="44.03103" lon="5.98217">
        <ele>412.8</ele>
        <time>2016-05-16T10:04:27Z</time>
      </trkpt>
      <trkpt lat="44.03097" lon="5.98208">
        <ele>411.4</ele>
        <time>2016-05-16T10:04:33Z</time>
      </trkpt>
      <trkpt lat="44.03093" lon="5.98198">
        <ele>411.7</ele>
        <time>2016-05-16T10:04:40Z</time>
      </trkpt>
      <trkpt lat="44.0309" lon="5.98189">
        <ele>411.4</ele>
        <time>2016-05-16T10:04:46Z</time>
      </trkpt>
      <trkpt lat="44.03086" lon="5.98179">
        <ele>411.9</ele>
        <time>2016-05-16T10:04:53Z</time>
      </trkpt>
      <trkpt lat="44.03088" lon="5.98167">
        <ele>410.9</ele>
        <time>2016-05-16T10:05:10Z</time>
      </trkpt>
      <trkpt lat="44.03088" lon="5.98165">
        <ele>411.1</ele>
        <time>2016-05-16T10:05:11Z</time>
      </trkpt>
      <trkpt lat="44.03073" lon="5.98155">
        <ele>410.6</ele>
        <time>2016-05-16T10:05:30Z</time>
      </trkpt>
      <trkpt lat="44.03073" lon="5.98143">
        <ele>409.1</ele>
        <time>2016-05-16T10:05:58Z</time>
      </trkpt>
      <trkpt lat="44.03066" lon="5.98135">
        <ele>408.5</ele>
        <time>2016-05-16T10:06:06Z</time>
      </trkpt>
      <trkpt lat="44.03064" lon="5.98123">
        <ele>407.4</ele>
        <time>2016-05-16T10:06:18Z</time>
      </trkpt>
      <trkpt lat="44.03065" lon="5.98122">
        <ele>407.4</ele>
        <time>2016-05-16T10:06:19Z</time>
      </trkpt>
      <trkpt lat="44.03062" lon="5.981">
        <ele>406.7</ele>
        <time>2016-05-16T10:06:35Z</time>
      </trkpt>
      <trkpt lat="44.03061" lon="5.98087">
        <ele>406.5</ele>
        <time>2016-05-16T10:06:51Z</time>
      </trkpt>
      <trkpt lat="44.03054" lon="5.98081">
        <ele>406.2</ele>
        <time>2016-05-16T10:06:59Z</time>
      </trkpt>
      <trkpt lat="44.03045" lon="5.98083">
        <ele>406.3</ele>
        <time>2016-05-16T10:07:29Z</time>
      </trkpt>
      <trkpt lat="44.03045" lon="5.98083">
        <ele>406.8</ele>
        <time>2016-05-16T10:07:30Z</time>
      </trkpt>
      <trkpt lat="44.03053" lon="5.98081">
        <ele>406.3</ele>
        <time>2016-05-16T10:08:10Z</time>
      </trkpt>
      <trkpt lat="44.03062" lon="5.98078">
        <ele>406</ele>
        <time>2016-05-16T10:08:26Z</time>
      </trkpt>
      <trkpt lat="44.03067" lon="5.98068">
        <ele>407.1</ele>
        <time>2016-05-16T10:08:35Z</time>
      </trkpt>
      <trkpt lat="44.03067" lon="5.98067">
        <ele>407.3</ele>
        <time>2016-05-16T10:08:36Z</time>
      </trkpt>
      <trkpt lat="44.03057" lon="5.98052">
        <ele>406.4</ele>
        <time>2016-05-16T10:09:02Z</time>
      </trkpt>
      <trkpt lat="44.03052" lon="5.98041">
        <ele>406.6</ele>
        <time>2016-05-16T10:09:12Z</time>
      </trkpt>
      <trkpt lat="44.03047" lon="5.98032">
        <ele>407</ele>
        <time>2016-05-16T10:09:21Z</time>
      </trkpt>
      <trkpt lat="44.03039" lon="5.98026">
        <ele>407.3</ele>
        <time>2016-05-16T10:09:37Z</time>
      </trkpt>
      <trkpt lat="44.03039" lon="5.98025">
        <ele>407</ele>
        <time>2016-05-16T10:09:38Z</time>
      </trkpt>
      <trkpt lat="44.0303" lon="5.98006">
        <ele>407.6</ele>
        <time>2016-05-16T10:10:18Z</time>
      </trkpt>
      <trkpt lat="44.03022" lon="5.98009">
        <ele>407.9</ele>
        <time>2016-05-16T10:10:29Z</time>
      </trkpt>
      <trkpt lat="44.03027" lon="5.98001">
        <ele>407.9</ele>
        <time>2016-05-16T10:10:45Z</time>
      </trkpt>
      <trkpt lat="44.03027" lon="5.98">
        <ele>408.1</ele>
        <time>2016-05-16T10:10:46Z</time>
      </trkpt>
      <trkpt lat="44.0304" lon="5.97989">
        <ele>407.7</ele>
        <time>2016-05-16T10:11:33Z</time>
      </trkpt>
      <trkpt lat="44.03032" lon="5.97991">
        <ele>407.6</ele>
        <time>2016-05-16T10:11:47Z</time>
      </trkpt>
      <trkpt lat="44.03025" lon="5.97993">
        <ele>407.7</ele>
        <time>2016-05-16T10:11:48Z</time>
      </trkpt>
      <trkpt lat="44.03016" lon="5.97995">
        <ele>408.1</ele>
        <time>2016-05-16T10:11:53Z</time>
      </trkpt>
      <trkpt lat="44.03025" lon="5.97992">
        <ele>408.2</ele>
        <time>2016-05-16T10:12:23Z</time>
      </trkpt>
      <trkpt lat="44.03033" lon="5.97989">
        <ele>408</ele>
        <time>2016-05-16T10:12:42Z</time>
      </trkpt>
      <trkpt lat="44.03037" lon="5.97978">
        <ele>407.7</ele>
        <time>2016-05-16T10:13:10Z</time>
      </trkpt>
      <trkpt lat="44.03037" lon="5.97977">
        <ele>407.7</ele>
        <time>2016-05-16T10:13:11Z</time>
      </trkpt>
      <trkpt lat="44.03033" lon="5.97955">
        <ele>406.3</ele>
        <time>2016-05-16T10:13:46Z</time>
      </trkpt>
      <trkpt lat="44.03032" lon="5.97943">
        <ele>405.6</ele>
        <time>2016-05-16T10:13:56Z</time>
      </trkpt>
      <trkpt lat="44.03034" lon="5.97932">
        <ele>405.4</ele>
        <time>2016-05-16T10:14:05Z</time>
      </trkpt>
      <trkpt lat="44.03037" lon="5.9792">
        <ele>404.8</ele>
        <time>2016-05-16T10:14:14Z</time>
      </trkpt>
      <trkpt lat="44.03037" lon="5.97919">
        <ele>404.7</ele>
        <time>2016-05-16T10:14:15Z</time>
      </trkpt>
      <trkpt lat="44.03032" lon="5.97898">
        <ele>404.8</ele>
        <time>2016-05-16T10:14:36Z</time>
      </trkpt>
      <trkpt lat="44.03028" lon="5.97887">
        <ele>406.1</ele>
        <time>2016-05-16T10:14:53Z</time>
      </trkpt>
      <trkpt lat="44.03023" lon="5.97881">
        <ele>406.1</ele>
        <time>2016-05-16T10:14:59Z</time>
      </trkpt>
      <trkpt lat="44.03018" lon="5.9787">
        <ele>406.3</ele>
        <time>2016-05-16T10:15:11Z</time>
      </trkpt>
      <trkpt lat="44.03011" lon="5.97864">
        <ele>406</ele>
        <time>2016-05-16T10:15:27Z</time>
      </trkpt>
      <trkpt lat="44.0301" lon="5.97864">
        <ele>406</ele>
        <time>2016-05-16T10:15:28Z</time>
      </trkpt>
      <trkpt lat="44.03003" lon="5.97844">
        <ele>404.6</ele>
        <time>2016-05-16T10:15:48Z</time>
      </trkpt>
      <trkpt lat="44.02999" lon="5.97835">
        <ele>404.8</ele>
        <time>2016-05-16T10:15:54Z</time>
      </trkpt>
      <trkpt lat="44.02995" lon="5.97825">
        <ele>404.4</ele>
        <time>2016-05-16T10:16:03Z</time>
      </trkpt>
      <trkpt lat="44.02987" lon="5.97819">
        <ele>404.8</ele>
        <time>2016-05-16T10:16:12Z</time>
      </trkpt>
      <trkpt lat="44.02994" lon="5.97809">
        <ele>405</ele>
        <time>2016-05-16T10:16:33Z</time>
      </trkpt>
      <trkpt lat="44.02993" lon="5.97807">
        <ele>406.3</ele>
        <time>2016-05-16T10:16:37Z</time>
      </trkpt>
      <trkpt lat="44.02984" lon="5.97792">
        <ele>406</ele>
        <time>2016-05-16T10:16:52Z</time>
      </trkpt>
      <trkpt lat="44.02984" lon="5.97781">
        <ele>406.1</ele>
        <time>2016-05-16T10:17:09Z</time>
      </trkpt>
      <trkpt lat="44.02927" lon="5.97534">
        <ele>405.9</ele>
        <time>2016-05-16T10:22:11Z</time>
      </trkpt>
      <trkpt lat="44.02933" lon="5.97542">
        <ele>406.3</ele>
        <time>2016-05-16T10:23:17Z</time>
      </trkpt>
    </trkseg>
  </trk>
</gpx>